Time,TemperatureF,DewpointF,PressureIn,WindDirection,WindDirectionDegrees,WindSpeedMPH,WindSpeedGustMPH,Humidity,HourlyPrecipIn,Conditions,Clouds,dailyrainin,SoftwareType,DateUTC
2013-05-03 00:05:00,50.2,49.0,30.13,WNW,282,0.0,2.0,96,0.00,,,0.00,weatherlink.com 1.10,2013-05-03 04:05:00,
2013-05-03 00:20:00,50.2,49.0,30.12,WNW,282,0.0,1.0,96,0.00,,,0.00,weatherlink.com 1.10,2013-05-03 04:20:00,
2013-05-03 00:35:00,50.2,49.0,30.12,WNW,282,0.0,2.0,96,0.00,,,0.00,weatherlink.com 1.10,2013-05-03 04:35:00,
2013-05-03 00:50:00,50.1,49.0,30.12,WNW,282,1.0,2.0,96,0.00,,,0.00,weatherlink.com 1.10,2013-05-03 04:50:00,
2013-05-03 01:05:00,50.0,49.0,30.11,WNW,282,0.0,4.0,97,0.00,,,0.00,weatherlink.com 1.10,2013-05-03 05:05:00,
2013-05-03 01:20:00,49.9,49.0,30.11,WNW,282,0.0,2.0,97,0.00,,,0.00,weatherlink.com 1.10,2013-05-03 05:20:00,
2013-05-03 01:35:00,49.8,49.0,30.10,NW,306,4.0,4.0,98,0.00,,,0.00,weatherlink.com 1.10,2013-05-03 05:35:00,
2013-05-03 01:50:00,49.7,49.0,30.09,NW,326,0.0,3.0,98,0.00,,,0.00,weatherlink.com 1.10,2013-05-03 05:50:00,
2013-05-03 02:05:00,49.7,49.0,30.09,NW,326,0.0,3.0,98,0.00,,,0.00,weatherlink.com 1.10,2013-05-03 06:05:00,
2013-05-03 02:20:00,49.6,49.0,30.08,NW,326,0.0,2.0,98,0.00,,,0.00,weatherlink.com 1.10,2013-05-03 06:20:00,
2013-05-03 02:35:00,49.6,49.0,30.07,NW,326,1.0,3.0,98,0.00,,,0.00,weatherlink.com 1.10,2013-05-03 06:35:00,
2013-05-03 02:50:00,49.5,49.0,30.07,WNW,299,2.0,4.0,98,0.00,,,0.00,weatherlink.com 1.10,2013-05-03 06:50:00,
2013-05-03 03:05:00,49.4,49.0,30.07,SW,235,3.0,3.0,98,0.00,,,0.00,weatherlink.com 1.10,2013-05-03 07:05:00,
2013-05-03 03:20:00,49.4,49.0,30.06,WSW,251,0.0,4.0,98,0.00,,,0.00,weatherlink.com 1.10,2013-05-03 07:20:00,
2013-05-03 03:35:00,49.2,49.0,30.06,NW,308,0.0,4.0,98,0.00,,,0.00,weatherlink.com 1.10,2013-05-03 07:35:00,
2013-05-03 03:50:00,49.1,49.0,30.06,WNW,302,1.0,3.0,98,0.00,,,0.00,weatherlink.com 1.10,2013-05-03 07:50:00,
2013-05-03 04:05:00,49.1,49.0,30.06,NW,319,3.0,4.0,98,0.00,,,0.00,weatherlink.com 1.10,2013-05-03 08:05:00,
2013-05-03 04:20:00,49.0,49.0,30.06,WNW,296,2.0,5.0,98,0.00,,,0.00,weatherlink.com 1.10,2013-05-03 08:20:00,
2013-05-03 04:35:00,48.9,48.0,30.06,WNW,291,2.0,5.0,98,0.00,,,0.00,weatherlink.com 1.10,2013-05-03 08:35:00,
2013-05-03 04:50:00,48.8,48.0,30.06,NNW,347,1.0,3.0,98,0.00,,,0.00,weatherlink.com 1.10,2013-05-03 08:50:00,
2013-05-03 05:05:00,48.7,48.0,30.06,West,261,0.0,4.0,98,0.00,,,0.00,weatherlink.com 1.10,2013-05-03 09:05:00,
2013-05-03 05:20:00,48.6,48.0,30.05,NW,304,1.0,4.0,98,0.00,,,0.00,weatherlink.com 1.10,2013-05-03 09:20:00,
2013-05-03 05:35:00,48.5,48.0,30.05,NW,311,1.0,7.0,98,0.00,,,0.00,weatherlink.com 1.10,2013-05-03 09:35:00,
2013-05-03 05:50:00,48.4,48.0,30.05,NE,53,1.0,4.0,98,0.00,,,0.00,weatherlink.com 1.10,2013-05-03 09:50:00,
2013-05-03 06:05:00,48.3,48.0,30.05,West,267,0.0,5.0,98,0.00,,,0.00,weatherlink.com 1.10,2013-05-03 10:05:00,
2013-05-03 06:20:00,48.3,48.0,30.05,WNW,288,0.0,4.0,98,0.00,,,0.00,weatherlink.com 1.10,2013-05-03 10:20:00,
2013-05-03 06:36:00,48.2,48.0,30.05,NNW,336,2.0,5.0,98,0.00,,,0.00,weatherlink.com 1.10,2013-05-03 10:36:00,
2013-05-03 06:50:00,48.2,48.0,30.05,NW,322,0.0,3.0,98,0.00,,,0.00,weatherlink.com 1.10,2013-05-03 10:50:00,
2013-05-03 07:05:00,48.2,47.0,30.05,NW,313,3.0,5.0,97,0.00,,,0.00,weatherlink.com 1.10,2013-05-03 11:05:00,
2013-05-03 07:20:00,48.2,47.0,30.06,NNW,347,2.0,5.0,97,0.00,,,0.00,weatherlink.com 1.10,2013-05-03 11:20:00,
2013-05-03 07:35:00,48.3,48.0,30.06,NW,322,2.0,4.0,97,0.00,,,0.00,weatherlink.com 1.10,2013-05-03 11:35:00,
2013-05-03 07:50:00,48.2,47.0,30.07,NW,319,3.0,4.0,97,0.00,,,0.00,weatherlink.com 1.10,2013-05-03 11:50:00,
2013-05-03 08:05:00,48.3,48.0,30.07,NW,316,0.0,4.0,97,0.00,,,0.00,weatherlink.com 1.10,2013-05-03 12:05:00,
2013-05-03 08:21:00,48.3,48.0,30.07,NNW,336,1.0,4.0,97,0.00,,,0.00,weatherlink.com 1.10,2013-05-03 12:21:00,
2013-05-03 08:36:00,48.4,48.0,30.06,NW,321,2.0,3.0,97,0.00,,,0.00,weatherlink.com 1.10,2013-05-03 12:36:00,
2013-05-03 08:51:00,48.4,48.0,30.06,NNE,15,0.0,7.0,97,0.00,,,0.00,weatherlink.com 1.10,2013-05-03 12:51:00,
2013-05-03 09:06:00,48.3,48.0,30.07,WSW,244,2.0,4.0,97,0.00,,,0.00,weatherlink.com 1.10,2013-05-03 13:06:00,
2013-05-03 09:21:00,48.1,48.0,30.07,West,281,1.0,4.0,98,0.00,,,0.00,weatherlink.com 1.10,2013-05-03 13:21:00,
2013-05-03 09:36:00,48.1,48.0,30.07,West,281,1.0,3.0,98,0.00,,,0.00,weatherlink.com 1.10,2013-05-03 13:36:00,
2013-05-03 09:51:00,48.0,48.0,30.07,West,276,1.0,3.0,98,0.00,,,0.00,weatherlink.com 1.10,2013-05-03 13:51:00,
2013-05-03 10:06:00,48.0,48.0,30.07,WNW,287,3.0,4.0,98,0.00,,,0.00,weatherlink.com 1.10,2013-05-03 14:06:00,
2013-05-03 10:21:00,47.9,47.0,30.07,WNW,286,0.0,4.0,98,0.00,,,0.00,weatherlink.com 1.10,2013-05-03 14:21:00,
2013-05-03 10:36:00,47.8,47.0,30.07,NW,307,1.0,6.0,98,0.00,,,0.00,weatherlink.com 1.10,2013-05-03 14:36:00,
2013-05-03 10:51:00,47.7,47.0,30.07,WSW,244,4.0,5.0,98,0.00,,,0.00,weatherlink.com 1.10,2013-05-03 14:51:00,
2013-05-03 11:06:00,47.6,47.0,30.07,WNW,292,1.0,7.0,98,0.00,,,0.00,weatherlink.com 1.10,2013-05-03 15:06:00,
2013-05-03 11:21:00,47.8,47.0,30.07,WNW,299,0.0,5.0,98,0.00,,,0.00,weatherlink.com 1.10,2013-05-03 15:21:00,
2013-05-03 11:36:00,48.1,48.0,30.07,West,281,2.0,4.0,98,0.00,,,0.00,weatherlink.com 1.10,2013-05-03 15:36:00,
2013-05-03 11:51:00,48.5,48.0,30.07,WNW,283,0.0,5.0,97,0.00,,,0.00,weatherlink.com 1.10,2013-05-03 15:51:00,
2013-05-03 12:06:00,49.4,48.0,30.07,WNW,295,5.0,5.0,94,0.00,,,0.00,weatherlink.com 1.10,2013-05-03 16:06:00,
2013-05-03 12:21:00,50.4,47.0,30.06,NW,312,2.0,5.0,89,0.00,,,0.00,weatherlink.com 1.10,2013-05-03 16:21:00,
2013-05-03 12:36:00,52.3,47.0,30.05,WSW,240,4.0,7.0,83,0.00,,,0.00,weatherlink.com 1.10,2013-05-03 16:36:00,
2013-05-03 12:51:00,54.4,46.0,30.05,NW,308,2.0,7.0,74,0.00,,,0.00,weatherlink.com 1.10,2013-05-03 16:51:00,
2013-05-03 13:06:00,56.5,47.0,30.04,WSW,250,2.0,8.0,71,0.00,,,0.00,weatherlink.com 1.10,2013-05-03 17:06:00,
2013-05-03 13:21:00,57.5,46.0,30.03,NW,313,4.0,8.0,65,0.00,,,0.00,weatherlink.com 1.10,2013-05-03 17:21:00,
2013-05-03 13:36:00,57.7,46.0,30.02,SW,233,6.0,11.0,65,0.00,,,0.00,weatherlink.com 1.10,2013-05-03 17:36:00,
2013-05-03 13:51:00,58.0,47.0,30.02,WSW,241,4.0,10.0,67,0.00,,,0.00,weatherlink.com 1.10,2013-05-03 17:51:00,
2013-05-03 14:06:00,56.1,47.0,30.03,NW,311,4.0,7.0,71,0.00,,,0.00,weatherlink.com 1.10,2013-05-03 18:06:00,
2013-05-03 14:22:00,55.2,47.0,30.03,WSW,252,3.0,10.0,73,0.00,,,0.00,weatherlink.com 1.10,2013-05-03 18:22:00,
2013-05-03 14:37:00,55.2,46.0,30.03,West,262,5.0,7.0,71,0.00,,,0.00,weatherlink.com 1.10,2013-05-03 18:37:00,
2013-05-03 14:52:00,53.8,46.0,30.03,WSW,255,4.0,7.0,74,0.00,,,0.00,weatherlink.com 1.10,2013-05-03 18:52:00,
2013-05-03 15:07:00,53.2,46.0,30.03,NW,316,3.0,6.0,77,0.00,,,0.00,weatherlink.com 1.10,2013-05-03 19:07:00,
2013-05-03 15:22:00,52.5,47.0,30.03,WNW,302,5.0,6.0,81,0.00,,,0.00,weatherlink.com 1.10,2013-05-03 19:22:00,
2013-05-03 15:37:00,51.5,48.0,30.03,WNW,284,3.0,7.0,86,0.00,,,0.00,weatherlink.com 1.10,2013-05-03 19:37:00,
2013-05-03 15:52:00,50.6,48.0,30.02,NW,311,1.0,6.0,89,0.00,,,0.00,weatherlink.com 1.10,2013-05-03 19:52:00,
2013-05-03 16:07:00,49.8,48.0,30.02,NW,314,3.0,8.0,92,0.00,,,0.00,weatherlink.com 1.10,2013-05-03 20:07:00,
2013-05-03 16:22:00,49.1,48.0,30.02,WNW,290,4.0,8.0,95,0.00,,,0.00,weatherlink.com 1.10,2013-05-03 20:22:00,
2013-05-03 16:37:00,49.3,48.0,30.01,NW,309,4.0,6.0,95,0.00,,,0.00,weatherlink.com 1.10,2013-05-03 20:37:00,
2013-05-03 16:52:00,49.9,48.0,30.00,West,269,4.0,7.0,92,0.00,,,0.00,weatherlink.com 1.10,2013-05-03 20:52:00,
2013-05-03 17:07:00,50.6,47.0,30.00,West,260,2.0,7.0,87,0.00,,,0.00,weatherlink.com 1.10,2013-05-03 21:07:00,
2013-05-03 17:22:00,50.7,46.0,30.01,West,266,4.0,7.0,85,0.00,,,0.00,weatherlink.com 1.10,2013-05-03 21:22:00,
2013-05-03 17:37:00,51.1,46.0,30.00,West,276,5.0,7.0,83,0.00,,,0.00,weatherlink.com 1.10,2013-05-03 21:37:00,
2013-05-03 17:52:00,51.3,46.0,30.00,WNW,292,2.0,6.0,82,0.00,,,0.00,weatherlink.com 1.10,2013-05-03 21:52:00,
2013-05-03 18:07:00,50.8,47.0,30.00,WNW,297,4.0,5.0,85,0.00,,,0.00,weatherlink.com 1.10,2013-05-03 22:07:00,
2013-05-03 18:22:00,50.6,47.0,29.99,WNW,293,3.0,6.0,86,0.00,,,0.00,weatherlink.com 1.10,2013-05-03 22:22:00,
2013-05-03 18:37:00,49.7,47.0,29.99,NW,308,3.0,6.0,90,0.00,,,0.00,weatherlink.com 1.10,2013-05-03 22:37:00,
2013-05-03 18:52:00,48.8,47.0,29.99,SW,221,3.0,8.0,93,0.00,,,0.00,weatherlink.com 1.10,2013-05-03 22:52:00,
2013-05-03 19:07:00,48.6,47.0,29.99,NW,304,3.0,9.0,94,0.00,,,0.00,weatherlink.com 1.10,2013-05-03 23:07:00,
2013-05-03 19:22:00,48.6,47.0,29.99,NW,307,0.0,4.0,94,0.00,,,0.00,weatherlink.com 1.10,2013-05-03 23:22:00,
2013-05-03 19:37:00,48.8,47.0,29.99,NW,314,4.0,9.0,93,0.00,,,0.00,weatherlink.com 1.10,2013-05-03 23:37:00,
2013-05-03 19:52:00,48.7,47.0,29.99,NW,305,3.0,6.0,94,0.00,,,0.00,weatherlink.com 1.10,2013-05-03 23:52:00,
2013-05-03 20:07:00,48.4,47.0,30.00,West,259,4.0,6.0,95,0.00,,,0.00,weatherlink.com 1.10,2013-05-04 00:07:00,
2013-05-03 20:22:00,48.2,47.0,29.99,WNW,300,0.0,6.0,96,0.01,,,0.01,weatherlink.com 1.10,2013-05-04 00:22:00,
2013-05-03 20:37:00,48.1,47.0,29.98,West,281,1.0,6.0,96,0.01,,,0.01,weatherlink.com 1.10,2013-05-04 00:37:00,
2013-05-03 20:52:00,47.8,47.0,29.99,NNW,347,0.0,8.0,97,0.01,,,0.01,weatherlink.com 1.10,2013-05-04 00:52:00,
2013-05-03 21:07:00,47.7,47.0,29.98,WNW,289,1.0,8.0,97,0.01,,,0.01,weatherlink.com 1.10,2013-05-04 01:07:00,
2013-05-03 21:22:00,47.6,47.0,29.98,WNW,296,5.0,7.0,97,0.01,,,0.02,weatherlink.com 1.10,2013-05-04 01:22:00,
2013-05-03 21:37:00,47.4,47.0,29.99,West,268,4.0,7.0,98,0.01,,,0.02,weatherlink.com 1.10,2013-05-04 01:37:00,
2013-05-03 21:52:00,47.3,47.0,29.99,WNW,303,3.0,6.0,98,0.01,,,0.02,weatherlink.com 1.10,2013-05-04 01:52:00,
2013-05-03 22:07:00,47.5,47.0,30.00,West,280,2.0,6.0,96,0.01,,,0.02,weatherlink.com 1.10,2013-05-04 02:07:00,
2013-05-03 22:22:00,47.8,46.0,29.99,NW,309,6.0,15.0,94,0.00,,,0.02,weatherlink.com 1.10,2013-05-04 02:22:00,
2013-05-03 22:37:00,48.1,46.0,29.99,WNW,294,3.0,7.0,92,0.00,,,0.02,weatherlink.com 1.10,2013-05-04 02:37:00,
2013-05-03 22:52:00,47.5,46.0,29.99,NW,311,2.0,7.0,95,0.00,,,0.02,weatherlink.com 1.10,2013-05-04 02:52:00,
2013-05-03 23:07:00,47.2,46.0,29.98,NNW,347,2.0,6.0,96,0.00,,,0.02,weatherlink.com 1.10,2013-05-04 03:07:00,
2013-05-03 23:22:00,47.1,46.0,29.97,NW,314,0.0,7.0,97,0.01,,,0.03,weatherlink.com 1.10,2013-05-04 03:22:00,
2013-05-03 23:37:00,47.1,47.0,29.97,NW,304,3.0,8.0,98,0.01,,,0.03,weatherlink.com 1.10,2013-05-04 03:37:00,
2013-05-03 23:52:00,47.0,47.0,29.96,WNW,292,4.0,8.0,98,0.01,,,0.03,weatherlink.com 1.10,2013-05-04 03:52:00,